Time;durP1;ratioP1;P1;durP2;ratioP2;P2;SDS_P1;SDS_P2;PMS_P1;PMS_P2;Temp;Humidity;BMP_temperature;BMP_pressure;BME280_temperature;BME280_humidity;BME280_pressure;Samples;Min_cycle;Max_cycle;Signal;HPM_P1;HPM_P2
2021/06/24 00:01:08;;;;;;;20.40;11.90;;;;;;;24.38;63.52;94725.58;829697;71;28768;-77
2021/06/24 00:16:08;;;;;;;20.57;13.57;;;;;;;24.26;64.02;94729.88;828310;71;29619;-77
2021/06/24 00:31:15;;;;;;;17.20;12.53;;;;;;;24.19;64.66;94731.94;827568;71;31758;-78
2021/06/24 00:46:13;;;;;;;19.37;12.20;;;;;;;23.75;65.77;94736.62;829330;71;31630;-80
2021/06/24 01:01:10;;;;;;;16.00;12.30;;;;;;;23.72;65.88;94748.05;834135;71;29310;-76
2021/06/24 01:16:11;;;;;;;20.73;13.40;;;;;;;23.73;66.30;94761.67;827871;71;30070;-78
2021/06/24 01:31:10;;;;;;;22.30;13.20;;;;;;;23.68;66.90;94751.26;834054;71;29218;-79
2021/06/24 01:46:17;;;;;;;21.00;13.03;;;;;;;23.64;67.31;94756.60;827884;71;32194;-78
2021/06/24 02:01:15;;;;;;;17.17;12.43;;;;;;;23.44;67.79;94747.14;827562;71;31748;-79
2021/06/24 02:16:13;;;;;;;14.90;11.93;;;;;;;23.36;68.18;94739.03;834605;71;30471;-79
2021/06/24 02:31:18;;;;;;;20.53;13.57;;;;;;;23.25;68.72;94720.70;834370;71;31844;-79
2021/06/24 02:46:14;;;;;;;19.87;13.30;;;;;;;23.21;69.07;94710.52;833977;71;32235;-78
2021/06/24 03:16:31;;;;;;;16.50;13.90;;;;;;;22.93;70.66;94738.98;833921;71;33305;-76
2021/06/24 03:31:14;;;;;;;20.00;14.27;;;;;;;23.24;70.17;94726.45;820083;71;32741;-79
2021/06/24 03:46:54;;;;;;;27.03;16.50;;;;;;;23.28;70.87;94736.63;828741;71;27061;-79
2021/06/24 04:01:11;;;;;;;27.07;15.80;;;;;;;23.54;71.05;94754.54;825852;71;31419;-87
2021/06/24 04:16:14;;;;;;;20.10;14.53;;;;;;;24.50;68.19;94743.34;833969;71;32747;-78
2021/06/24 04:46:15;;;;;;;26.17;16.70;;;;;;;25.67;63.11;94739.06;834867;71;32728;-77
2021/06/24 05:01:08;;;;;;;28.63;17.17;;;;;;;26.02;62.84;94733.06;828618;71;29750;-79
2021/06/24 05:16:19;;;;;;;22.80;16.50;;;;;;;26.18;60.66;94683.70;829393;71;32877;-84
2021/06/24 05:31:08;;;;;;;21.83;17.40;;;;;;;26.55;61.30;94746.39;816213;71;29692;-83
2021/06/24 05:46:19;;;;;;;28.30;17.40;;;;;;;26.86;60.70;123554.15;828569;71;32723;-85
2021/06/24 06:01:16;;;;;;;23.53;15.73;;;;;;;27.51;59.59;94752.25;819493;71;32760;-86
2021/06/24 06:16:17;;;;;;;35.03;17.80;;;;;;;28.28;56.65;94746.12;827596;71;32786;-84
2021/06/24 06:31:17;;;;;;;25.27;17.83;;;;;;;28.34;56.62;94742.44;827767;71;32731;-83
2021/06/24 06:46:10;;;;;;;24.50;18.33;;;;;;;28.88;55.29;94740.70;828375;71;30351;-84
2021/06/24 07:01:08;;;;;;;26.83;19.33;;;;;;;29.96;53.07;94732.97;834669;71;29779;-84
2021/06/24 07:16:11;;;;;;;27.80;18.97;;;;;;;30.71;51.16;94742.55;828183;71;31457;-77
2021/06/24 07:31:14;;;;;;;20.43;15.70;;;;;;;30.65;50.17;94738.19;827808;71;32858;-76
2021/06/24 07:46:08;;;;;;;24.30;15.47;;;;;;;30.84;48.88;94744.86;828449;71;29639;-76
2021/06/24 08:01:14;;;;;;;18.40;15.00;;;;;;;31.07;47.74;94744.09;821797;71;33275;-77
2021/06/24 08:16:33;;;;;;;20.53;14.40;;;;;;;31.71;45.47;94740.02;835355;71;31833;-77
2021/06/24 08:31:12;;;;;;;22.10;14.40;;;;;;;32.34;42.96;94748.02;828634;71;32518;-76
2021/06/24 08:46:26;;;;;;;18.57;12.73;;;;;;;32.98;41.05;94750.41;828341;71;31862;-74
2021/06/24 09:16:22;;;;;;;14.07;9.83;;;;;;;33.27;37.41;94734.16;834056;71;29222;-77
2021/06/24 09:31:41;;;;;;;13.00;9.67;;;;;;;33.18;37.77;94742.16;825092;71;29234;-76
2021/06/24 09:46:19;;;;;;;13.70;8.70;;;;;;;33.59;35.24;94723.58;834047;71;31742;-76
2021/06/24 10:01:29;;;;;;;13.30;8.30;;;;;;;33.99;32.99;94715.08;827635;71;31845;-76
2021/06/24 10:31:29;;;;;;;14.87;8.67;;;;;;;35.09;32.33;94689.59;834009;71;29412;-76
2021/06/24 10:46:17;;;;;;;13.40;7.97;;;;;;;35.34;31.45;94676.45;833944;71;31738;-76
2021/06/24 11:01:08;;;;;;;6.80;6.13;;;;;;;35.56;31.16;94675.68;834084;71;28527;-77
2021/06/24 11:16:19;;;;;;;10.57;6.40;;;;;;;36.17;28.60;94676.91;833846;71;31734;-78
2021/06/24 11:31:09;;;;;;;7.57;6.33;;;;;;;36.47;28.63;94678.06;833336;71;28660;-77
2021/06/24 11:46:17;;;;;;;12.40;7.33;;;;;;;36.08;28.30;94647.56;813836;71;32357;-76
2021/06/24 12:16:14;;;;;;;12.93;7.77;;;;;;;36.73;29.13;94641.53;827549;71;31785;-77
2021/06/24 12:31:23;;;;;;;10.00;6.90;;;;;;;36.92;29.07;94632.09;827491;71;32193;-78
2021/06/24 12:46:34;;;;;;;9.50;6.73;;;;;;;36.97;28.98;94622.53;832745;71;31757;-77
2021/06/24 13:01:19;;;;;;;13.77;8.07;;;;;;;36.35;29.18;94601.66;820059;71;28752;-77
2021/06/24 13:16:26;;;;;;;9.90;6.50;;;;;;;36.43;29.72;94591.94;828157;71;29545;-77
2021/06/24 13:31:10;;;;;;;15.57;7.00;;;;;;;36.40;30.01;94573.11;830187;70;28950;-78
2021/06/24 13:46:24;;;;;;;19.37;7.50;;;;;;;36.35;28.84;94568.84;833998;71;32734;-76
2021/06/24 14:01:31;;;;;;;12.83;6.80;;;;;;;36.23;28.75;94556.84;827759;71;31731;-77
2021/06/24 14:16:28;;;;;;;10.97;6.63;;;;;;;36.09;29.25;94552.69;820695;71;31942;-80
2021/06/24 14:31:09;;;;;;;9.13;6.10;;;;;;;35.87;29.34;94537.17;824157;71;28680;-76
2021/06/24 14:46:13;;;;;;;12.80;6.53;;;;;;;35.60;30.08;94525.52;828967;71;28645;-77
2021/06/24 15:16:16;;;;;;;12.80;6.97;;;;;;;35.17;30.98;94532.64;827939;71;31781;-77
2021/06/24 15:31:16;;;;;;;10.80;6.73;;;;;;;34.97;31.41;94515.22;833659;71;31806;-77
2021/06/24 15:46:14;;;;;;;10.77;7.03;;;;;;;34.67;31.60;94520.78;827477;71;31746;-76
2021/06/24 16:01:15;;;;;;;12.80;6.33;;;;;;;34.31;31.79;94526.86;828318;71;31720;-76
2021/06/24 16:16:09;;;;;;;9.63;6.57;;;;;;;33.83;32.28;94528.80;834191;71;28154;-78
2021/06/24 16:31:35;;;;;;;7.70;6.50;;;;;;;33.56;32.42;94544.80;821737;71;30888;-78
2021/06/24 16:46:27;;;;;;;11.27;6.93;;;;;;;33.24;35.57;94551.37;833946;71;30908;-77
2021/06/24 17:01:14;;;;;;;10.50;7.57;;;;;;;32.79;36.51;94561.77;834180;71;30903;-79
2021/06/24 17:16:14;;;;;;;10.50;8.27;;;;;;;32.32;36.58;94579.83;828649;71;30645;-75
2021/06/24 17:31:09;;;;;;;11.40;7.87;;;;;;;31.90;36.72;94587.82;828552;71;27665;-78
2021/06/24 17:46:16;;;;;;;19.13;9.80;;;;;;;31.54;37.08;94602.19;821604;71;31305;-77
2021/06/24 18:01:11;;;;;;;16.37;9.43;;;;;;;31.16;37.76;94583.58;821544;71;29390;-77
2021/06/24 18:16:32;;;;;;;13.20;8.77;;;;;;;30.84;41.30;94597.16;820630;71;30990;-80
2021/06/24 18:31:10;;;;;;;11.07;7.53;;;;;;;30.49;41.59;94613.47;821209;71;27755;-75
2021/06/24 18:46:15;;;;;;;17.50;9.63;;;;;;;30.18;44.42;94622.28;834090;71;30746;-76
2021/06/24 19:01:14;;;;;;;12.90;8.97;;;;;;;29.89;45.34;94626.19;827479;71;31354;-76
2021/06/24 19:16:13;;;;;;;15.43;10.80;;;;;;;29.65;46.17;94628.64;819234;71;32231;-77
2021/06/24 19:31:14;;;;;;;15.40;10.33;;;;;;;29.43;47.22;94625.45;831416;70;32707;-78
2021/06/24 19:46:08;;;;;;;11.20;8.70;;;;;;;29.22;49.17;94623.77;829871;71;28727;-80
2021/06/24 20:01:10;;;;;;;13.70;8.90;;;;;;;29.05;47.45;94622.20;829144;71;30255;-77
2021/06/24 20:16:15;;;;;;;10.70;9.60;;;;;;;28.88;46.41;94613.13;822707;71;31853;-78
2021/06/24 20:31:11;;;;;;;13.83;8.83;;;;;;;28.69;46.39;94592.89;834443;71;29111;-77
2021/06/24 20:46:10;;;;;;;13.00;9.17;;;;;;;28.53;47.42;94581.28;828462;71;29216;-76
2021/06/24 21:16:14;;;;;;;15.30;9.50;;;;;;;28.30;48.98;94567.00;829106;71;31776;-77
2021/06/24 21:31:08;;;;;;;21.40;8.93;;;;;;;28.16;49.39;94561.17;833514;71;28676;-78
2021/06/24 21:46:09;;;;;;;12.30;9.27;;;;;;;28.08;49.61;94548.91;794313;74;30909;-77
2021/06/24 22:01:08;;;;;;;18.70;10.70;;;;;;;27.80;51.27;94548.54;828554;71;30168;-77
2021/06/24 22:16:14;;;;;;;16.93;10.90;;;;;;;27.15;54.95;94538.14;827893;71;31845;-76
2021/06/24 22:31:12;;;;;;;16.00;9.80;;;;;;;;;;828415;71;32543;-78
2021/06/24 22:46:15;;;;;;;15.97;10.00;;;;;;;26.39;58.24;94541.66;827628;71;32695;-76
2021/06/24 23:01:08;;;;;;;14.30;8.60;;;;;;;26.49;58.14;94558.18;828463;71;30196;-77
2021/06/24 23:16:08;;;;;;;13.57;9.13;;;;;;;26.46;58.10;94564.33;828667;71;30237;-77
2021/06/24 23:31:08;;;;;;;13.03;8.90;;;;;;;23.33;58.70;94109.11;835995;70;29720;-78
2021/06/24 23:46:11;;;;;;;15.97;9.40;;;;;;;;;;829845;71;32019;-78
